createdAt,value
2023-03-03T00:00:54.855Z,18.27
2023-03-03T00:03:03.353Z,17.53
2023-03-03T00:05:07.989Z,16.00
2023-03-03T00:07:11.507Z,18.20
2023-03-03T00:09:12.979Z,18.15
2023-03-03T00:11:14.627Z,18.30
2023-03-03T00:13:18.608Z,17.47
2023-03-03T00:15:23.192Z,16.70
2023-03-03T00:17:29.948Z,16.80
2023-03-03T00:19:39.918Z,17.50
2023-03-03T00:21:45.065Z,17.02
2023-03-03T00:23:47.261Z,17.13
2023-03-03T00:25:53.709Z,17.92
2023-03-03T00:27:55.465Z,16.33
2023-03-03T00:29:59.578Z,15.90
2023-03-03T00:32:10.749Z,18.00
2023-03-03T00:34:18.496Z,17.23
2023-03-03T00:36:39.045Z,16.07
2023-03-03T00:38:40.942Z,20.50
2023-03-03T00:40:42.671Z,17.70
2023-03-03T00:42:51.740Z,19.60
2023-03-03T00:45:00.308Z,19.60
2023-03-03T00:47:19.014Z,18.10
2023-03-03T00:49:27.224Z,21.00
2023-03-03T00:51:34.411Z,16.40
2023-03-03T00:53:36.290Z,18.47
2023-03-03T00:55:38.188Z,17.80
2023-03-03T00:57:39.967Z,18.03
2023-03-03T00:59:44.458Z,19.27
2023-03-03T01:01:46.126Z,18.40
2023-03-03T01:03:48.107Z,16.07
2023-03-03T01:05:50.874Z,17.20
2023-03-03T01:07:52.493Z,17.40
2023-03-03T01:09:53.986Z,18.70
2023-03-03T01:11:56.218Z,17.63
2023-03-03T01:13:58.037Z,18.93
2023-03-03T01:16:03.248Z,17.23
2023-03-03T01:18:04.907Z,18.50
2023-03-03T01:20:13.923Z,14.07
2023-03-03T01:22:16.038Z,17.77
2023-03-03T01:24:17.640Z,17.87
2023-03-03T01:26:19.207Z,17.93
2023-03-03T01:28:20.947Z,19.43
2023-03-03T01:30:23.402Z,16.50
2023-03-03T01:32:25.952Z,18.03
2023-03-03T01:34:27.497Z,18.87
2023-03-03T01:36:29.574Z,19.13
2023-03-03T01:38:31.859Z,18.80
2023-03-03T01:40:33.516Z,18.37
2023-03-03T01:42:37.000Z,19.43
2023-03-03T01:44:38.574Z,19.03
2023-03-03T01:46:46.699Z,18.80
2023-03-03T01:48:48.523Z,19.43
2023-03-03T01:51:19.014Z,15.77
2023-03-03T01:53:41.734Z,19.63
2023-03-03T01:55:45.185Z,19.33
2023-03-03T01:57:53.052Z,19.23
2023-03-03T01:59:56.934Z,19.97
2023-03-03T02:01:58.872Z,20.13
2023-03-03T02:04:02.700Z,18.70
2023-03-03T02:06:08.192Z,18.50
2023-03-03T02:08:12.828Z,20.30
2023-03-03T02:10:17.475Z,19.73
2023-03-03T02:12:22.548Z,18.53
2023-03-03T02:14:25.139Z,19.83
2023-03-03T02:16:27.036Z,17.50
2023-03-03T02:18:28.928Z,17.80
2023-03-03T02:20:33.317Z,20.20
2023-03-03T02:22:44.491Z,18.90
2023-03-03T02:24:57.459Z,16.50
2023-03-03T02:26:59.146Z,19.93
2023-03-03T02:29:04.074Z,19.47
2023-03-03T02:31:13.046Z,17.93
2023-03-03T02:33:15.727Z,19.77
2023-03-03T02:35:29.705Z,18.43
2023-03-03T02:37:31.612Z,17.23
2023-03-03T02:39:33.288Z,18.27
2023-03-03T02:41:46.814Z,19.03
2023-03-03T02:43:59.033Z,20.03
2023-03-03T02:46:01.273Z,18.10
2023-03-03T02:48:02.788Z,18.77
2023-03-03T02:50:04.878Z,18.87
2023-03-03T02:52:09.895Z,21.27
2023-03-03T02:54:15.367Z,18.77
2023-03-03T02:56:16.892Z,19.70
2023-03-03T02:58:18.949Z,18.00
2023-03-03T03:00:22.350Z,19.27
2023-03-03T03:02:24.485Z,18.13
2023-03-03T03:04:27.962Z,18.67
2023-03-03T03:06:30.194Z,18.80
2023-03-03T03:08:31.835Z,17.67
2023-03-03T03:10:33.790Z,18.00
2023-03-03T03:12:35.614Z,17.87
2023-03-03T03:14:37.261Z,17.23
2023-03-03T03:16:41.041Z,18.20
2023-03-03T03:18:42.640Z,17.73
2023-03-03T03:20:46.136Z,17.80
2023-03-03T03:22:48.586Z,15.80
2023-03-03T03:24:50.185Z,19.27
2023-03-03T03:26:51.817Z,22.43
2023-03-03T03:28:54.919Z,19.93
2023-03-03T03:30:56.824Z,18.47
2023-03-03T03:32:58.403Z,17.17
2023-03-03T03:35:00.139Z,18.53
2023-03-03T03:37:02.045Z,17.33
2023-03-03T03:39:06.320Z,16.07
2023-03-03T03:41:13.042Z,19.07
2023-03-03T03:43:14.928Z,18.93
2023-03-03T03:45:16.726Z,19.23
2023-03-03T03:47:21.128Z,17.33
2023-03-03T03:49:22.876Z,19.80
2023-03-03T03:51:27.510Z,19.30
2023-03-03T03:53:29.150Z,18.70
2023-03-03T03:55:30.998Z,17.20
2023-03-03T03:57:33.127Z,18.53
2023-03-03T03:59:34.836Z,22.90
2023-03-03T04:01:36.473Z,18.67
2023-03-03T04:03:38.359Z,22.93
2023-03-03T04:05:44.555Z,20.20
2023-03-03T04:07:46.743Z,19.60
2023-03-03T04:09:50.163Z,18.87
2023-03-03T04:11:52.052Z,18.00
2023-03-03T04:13:53.848Z,18.67
2023-03-03T04:15:56.356Z,20.67
2023-03-03T04:17:58.100Z,20.93
2023-03-03T04:20:00.858Z,18.13
2023-03-03T04:22:02.792Z,18.83
2023-03-03T04:24:05.772Z,20.90
2023-03-03T04:26:09.124Z,20.70
2023-03-03T04:28:11.257Z,21.30
2023-03-03T04:30:15.239Z,20.03
2023-03-03T04:32:19.296Z,20.57
2023-03-03T04:34:22.296Z,18.83
2023-03-03T04:36:23.928Z,19.63
2023-03-03T04:38:26.203Z,22.60
2023-03-03T04:40:29.542Z,21.13
2023-03-03T04:42:31.604Z,20.20
2023-03-03T04:44:33.547Z,20.10
2023-03-03T04:46:35.733Z,18.13
2023-03-03T04:48:38.958Z,19.10
2023-03-03T04:50:42.436Z,18.70
2023-03-03T04:52:44.271Z,19.60
2023-03-03T04:54:47.635Z,22.77
2023-03-03T04:56:49.420Z,18.63
2023-03-03T04:58:52.333Z,19.07
2023-03-03T05:00:55.931Z,20.10
2023-03-03T05:02:59.486Z,18.03
2023-03-03T05:05:01.268Z,17.80
2023-03-03T05:07:03.260Z,19.50
2023-03-03T05:09:04.791Z,18.50
2023-03-03T05:11:06.751Z,17.87
2023-03-03T05:13:09.501Z,19.73
2023-03-03T05:15:11.231Z,18.20
2023-03-03T05:17:12.828Z,18.60
2023-03-03T05:19:14.522Z,22.77
2023-03-03T05:21:16.172Z,20.27
2023-03-03T05:23:18.898Z,18.90
2023-03-03T05:25:21.839Z,19.23
2023-03-03T05:27:23.748Z,18.53
2023-03-03T05:29:26.251Z,20.77
2023-03-03T05:31:27.997Z,17.87
2023-03-03T05:33:29.552Z,20.60
2023-03-03T05:35:31.318Z,20.83
2023-03-03T05:37:32.995Z,23.37
2023-03-03T05:39:35.286Z,18.47
2023-03-03T05:41:37.049Z,21.53
2023-03-03T05:43:38.597Z,24.17
2023-03-03T05:45:40.529Z,21.53
2023-03-03T05:47:42.600Z,20.77
2023-03-03T05:49:44.235Z,21.23
2023-03-03T05:51:45.923Z,18.47
2023-03-03T05:53:47.617Z,22.93
2023-03-03T05:55:49.980Z,22.80
2023-03-03T05:57:51.827Z,22.83
2023-03-03T05:59:53.387Z,25.47
2023-03-03T06:01:55.073Z,24.93
2023-03-03T06:03:56.723Z,27.83
2023-03-03T06:05:58.483Z,22.20
2023-03-03T06:08:00.122Z,27.13
2023-03-03T06:10:01.955Z,24.20
2023-03-03T06:12:09.778Z,25.90
2023-03-03T06:14:11.563Z,26.17
2023-03-03T06:16:13.394Z,24.23
2023-03-03T06:18:15.178Z,27.83
2023-03-03T06:20:16.865Z,26.37
2023-03-03T06:22:19.065Z,30.73
2023-03-03T06:24:20.830Z,25.97
2023-03-03T06:26:23.089Z,29.27
2023-03-03T06:28:25.150Z,27.07
2023-03-03T06:30:28.353Z,27.40
2023-03-03T06:32:30.146Z,27.27
2023-03-03T06:34:31.830Z,29.87
2023-03-03T06:36:33.476Z,28.93
2023-03-03T06:38:35.168Z,30.50
2023-03-03T06:40:36.696Z,27.80
2023-03-03T06:42:38.308Z,30.73
2023-03-03T06:44:40.040Z,32.53
2023-03-03T06:46:41.649Z,34.70
2023-03-03T06:48:43.358Z,34.00
2023-03-03T06:50:44.880Z,35.20
2023-03-03T06:52:46.511Z,35.03
2023-03-03T06:54:48.254Z,33.70
2023-03-03T06:56:53.903Z,31.27
2023-03-03T06:58:58.270Z,32.27
2023-03-03T07:01:01.459Z,28.90
2023-03-03T07:03:12.337Z,32.33
2023-03-03T07:05:18.229Z,31.60
2023-03-03T07:07:25.797Z,26.97
2023-03-03T07:09:29.819Z,31.03
2023-03-03T07:11:31.533Z,26.80
2023-03-03T07:13:34.082Z,23.63
2023-03-03T07:15:36.038Z,26.60
2023-03-03T07:17:43.436Z,26.27
2023-03-03T07:19:46.368Z,21.23
2023-03-03T07:21:47.928Z,25.07
2023-03-03T07:23:52.058Z,23.63
2023-03-03T07:25:53.819Z,25.13
2023-03-03T07:28:00.967Z,24.90
2023-03-03T07:30:24.647Z,25.23
2023-03-03T07:32:34.314Z,24.50
2023-03-03T07:34:39.849Z,24.17
2023-03-03T07:36:41.876Z,23.60
2023-03-03T07:38:53.026Z,23.23
2023-03-03T07:40:56.958Z,22.27
2023-03-03T07:42:58.532Z,21.50
2023-03-03T07:45:34.739Z,21.37
2023-03-03T07:47:37.218Z,21.50
2023-03-03T07:49:39.043Z,22.50
2023-03-03T07:51:42.242Z,24.87
2023-03-03T07:53:44.045Z,27.00
2023-03-03T07:55:46.404Z,25.07
2023-03-03T07:57:51.957Z,24.90
2023-03-03T07:59:58.591Z,27.07
2023-03-03T08:02:00.568Z,25.42
2023-03-03T08:04:02.353Z,27.90
2023-03-03T08:06:35.846Z,25.52
2023-03-03T08:08:37.409Z,25.23
2023-03-03T08:10:48.380Z,24.05
2023-03-03T08:12:50.111Z,24.50
2023-03-03T08:14:54.328Z,27.45
2023-03-03T08:16:57.630Z,27.33
2023-03-03T08:19:03.735Z,24.13
2023-03-03T08:21:16.570Z,26.52
2023-03-03T08:23:19.380Z,24.48
2023-03-03T08:25:21.032Z,24.92
2023-03-03T08:27:22.556Z,26.55
2023-03-03T08:29:24.742Z,26.13
2023-03-03T08:31:40.314Z,25.88
2023-03-03T08:33:42.542Z,25.35
2023-03-03T08:35:45.233Z,24.70
2023-03-03T08:37:46.912Z,23.70
2023-03-03T08:39:48.540Z,24.55
2023-03-03T08:41:50.551Z,24.35
2023-03-03T08:43:52.097Z,23.33
2023-03-03T08:45:58.178Z,23.70
2023-03-03T08:48:01.388Z,22.58
2023-03-03T08:50:03.342Z,22.45
2023-03-03T08:52:05.138Z,24.35
2023-03-03T08:54:07.320Z,27.42
2023-03-03T08:56:10.224Z,25.75
2023-03-03T08:58:12.110Z,25.17
2023-03-03T09:00:16.640Z,23.48
2023-03-03T09:02:18.220Z,23.95
2023-03-03T09:04:19.781Z,23.27
2023-03-03T09:06:21.292Z,24.55
2023-03-03T09:08:22.918Z,21.92
2023-03-03T09:10:29.353Z,22.30
2023-03-03T09:12:35.765Z,20.30
2023-03-03T09:14:37.489Z,18.40
2023-03-03T09:17:03.390Z,19.25
2023-03-03T09:19:25.849Z,22.33
2023-03-03T09:21:32.956Z,21.85
2023-03-03T09:23:36.934Z,21.35
2023-03-03T09:25:40.741Z,18.63
2023-03-03T09:27:43.485Z,19.02
2023-03-03T09:29:45.309Z,22.13
2023-03-03T09:31:55.786Z,22.35
2023-03-03T09:33:59.387Z,22.80
2023-03-03T09:36:12.514Z,22.73
2023-03-03T09:38:33.618Z,23.48
2023-03-03T09:41:00.902Z,22.83
2023-03-03T09:43:25.873Z,22.02
2023-03-03T09:46:06.945Z,18.58
2023-03-03T09:48:17.654Z,22.02
2023-03-03T09:50:56.444Z,20.45
2023-03-03T09:53:28.354Z,20.48
2023-03-03T09:55:57.997Z,20.35
2023-03-03T09:58:11.393Z,18.27
2023-03-03T10:00:46.762Z,18.40
2023-03-03T10:03:08.714Z,17.75
2023-03-03T10:05:30.049Z,18.02
2023-03-03T10:07:55.566Z,17.33
2023-03-03T10:10:12.432Z,17.17
2023-03-03T10:12:33.708Z,16.05
2023-03-03T10:14:44.607Z,17.13
2023-03-03T10:16:52.747Z,17.65
2023-03-03T10:19:15.478Z,16.38
2023-03-03T10:21:23.419Z,17.52
2023-03-03T10:23:36.912Z,17.40
2023-03-03T10:25:47.109Z,15.25
2023-03-03T10:28:13.517Z,15.40
2023-03-03T10:30:38.273Z,15.65
2023-03-03T10:33:22.336Z,16.88
2023-03-03T10:35:44.434Z,15.75
2023-03-03T10:37:54.435Z,14.90
2023-03-03T10:40:30.180Z,14.55
2023-03-03T10:43:00.628Z,14.15
2023-03-03T10:45:20.906Z,13.75
2023-03-03T10:47:53.890Z,15.07
2023-03-03T10:50:34.443Z,14.05
2023-03-03T10:52:42.600Z,14.25
2023-03-03T10:54:44.048Z,11.50
2023-03-03T10:57:16.033Z,13.95
2023-03-03T10:59:32.868Z,12.80
2023-03-03T11:02:02.141Z,13.88
2023-03-03T11:04:17.188Z,11.63
2023-03-03T11:06:40.695Z,11.15
2023-03-03T11:08:57.594Z,11.77
2023-03-03T11:11:18.196Z,11.75
2023-03-03T11:13:38.702Z,12.00
2023-03-03T11:15:50.121Z,12.05
2023-03-03T11:18:06.851Z,11.85
2023-03-03T11:20:42.608Z,14.52
2023-03-03T11:23:01.393Z,12.05
2023-03-03T11:25:08.796Z,11.85
2023-03-03T11:27:20.516Z,13.65
2023-03-03T11:29:45.330Z,11.52
2023-03-03T11:31:49.692Z,12.00
2023-03-03T11:34:06.669Z,12.25
2023-03-03T11:36:19.139Z,12.68
2023-03-03T11:38:52.899Z,11.73
2023-03-03T11:41:04.735Z,13.68
2023-03-03T11:43:36.732Z,10.75
2023-03-03T11:45:45.081Z,10.60
2023-03-03T11:48:01.054Z,10.73
2023-03-03T11:50:10.792Z,10.68
2023-03-03T11:52:22.063Z,11.85
2023-03-03T11:54:32.707Z,13.43
2023-03-03T11:56:42.953Z,11.10
2023-03-03T11:58:49.619Z,11.15
2023-03-03T12:00:58.609Z,10.90
2023-03-03T12:03:21.374Z,11.18
2023-03-03T12:05:38.674Z,11.20
2023-03-03T12:08:15.605Z,11.02
2023-03-03T12:10:28.848Z,10.80
2023-03-03T12:12:39.633Z,11.43
2023-03-03T12:15:02.617Z,9.88
2023-03-03T12:17:34.151Z,13.43
2023-03-03T12:19:44.663Z,10.57
2023-03-03T12:22:04.775Z,11.10
2023-03-03T12:24:11.149Z,10.75
2023-03-03T12:26:41.447Z,12.15
2023-03-03T12:28:55.302Z,11.55
2023-03-03T12:31:22.918Z,10.63
2023-03-03T12:33:49.594Z,11.13
2023-03-03T12:36:02.803Z,11.15
2023-03-03T12:38:31.088Z,10.75
2023-03-03T12:40:35.661Z,10.48
2023-03-03T12:43:09.372Z,11.60
2023-03-03T12:45:20.244Z,10.15
2023-03-03T12:47:29.595Z,11.73
2023-03-03T12:49:48.091Z,11.02
2023-03-03T12:52:18.037Z,9.50
2023-03-03T12:54:53.651Z,12.18
2023-03-03T12:57:02.025Z,11.68
2023-03-03T12:59:29.677Z,10.82
2023-03-03T13:01:36.937Z,11.75
2023-03-03T13:03:49.662Z,11.18
2023-03-03T13:06:15.558Z,11.55
2023-03-03T13:08:34.231Z,10.43
2023-03-03T13:10:38.884Z,9.63
2023-03-03T13:12:43.290Z,10.98
2023-03-03T13:14:56.801Z,10.82
2023-03-03T13:17:17.958Z,10.75
2023-03-03T13:19:30.803Z,9.38
2023-03-03T13:21:41.880Z,9.38
2023-03-03T13:24:05.581Z,10.35
2023-03-03T13:26:25.755Z,9.23
2023-03-03T13:29:12.592Z,9.52
2023-03-03T13:31:21.829Z,9.52
2023-03-03T13:33:31.035Z,9.32
2023-03-03T13:35:32.966Z,9.43
2023-03-03T13:37:52.578Z,9.32
2023-03-03T13:40:06.081Z,8.77
2023-03-03T13:42:28.294Z,9.65
2023-03-03T13:44:42.850Z,8.88
2023-03-03T13:46:50.234Z,8.95
2023-03-03T13:49:10.664Z,8.93
2023-03-03T13:51:35.714Z,7.80
2023-03-03T13:54:13.053Z,9.80
2023-03-03T13:56:29.872Z,8.88
2023-03-03T13:58:57.380Z,9.10
2023-03-03T14:01:06.650Z,8.20
2023-03-03T14:03:26.141Z,8.73
2023-03-03T14:05:48.680Z,9.90
2023-03-03T14:07:56.449Z,9.13
2023-03-03T14:10:25.577Z,8.85
2023-03-03T14:12:44.765Z,9.07
2023-03-03T14:15:05.215Z,8.48
2023-03-03T14:17:29.901Z,8.52
2023-03-03T14:19:36.928Z,8.20
2023-03-03T14:22:01.971Z,7.65
2023-03-03T14:24:18.425Z,8.93
2023-03-03T14:26:20.204Z,7.75
2023-03-03T14:28:24.945Z,7.65
2023-03-03T14:30:35.249Z,9.05
2023-03-03T14:32:45.465Z,8.48
2023-03-03T14:34:59.054Z,7.85
2023-03-03T14:37:21.651Z,7.60
2023-03-03T14:39:32.564Z,6.70
2023-03-03T14:41:41.009Z,8.57
2023-03-03T14:43:46.244Z,7.50
2023-03-03T14:45:48.093Z,8.32
2023-03-03T14:47:50.126Z,7.28
2023-03-03T14:49:52.754Z,9.48
2023-03-03T14:52:03.558Z,7.70
2023-03-03T14:54:14.333Z,8.15
2023-03-03T14:56:27.908Z,6.68
2023-03-03T14:58:41.354Z,6.60
2023-03-03T15:00:43.178Z,6.95
2023-03-03T15:02:49.866Z,6.80
2023-03-03T15:05:14.072Z,6.30
2023-03-03T15:07:37.309Z,7.38
2023-03-03T15:09:50.454Z,6.80
2023-03-03T15:11:54.214Z,6.60
2023-03-03T15:14:15.760Z,7.53
2023-03-03T15:16:25.350Z,6.20
2023-03-03T15:18:28.711Z,6.47
2023-03-03T15:20:48.233Z,6.07
2023-03-03T15:23:11.178Z,6.90
2023-03-03T15:25:42.205Z,5.03
2023-03-03T15:28:06.285Z,4.55
2023-03-03T15:30:47.587Z,5.25
2023-03-03T15:33:08.945Z,5.72
2023-03-03T15:35:20.577Z,4.85
2023-03-03T15:37:47.745Z,5.15
2023-03-03T15:40:04.512Z,5.03
2023-03-03T15:42:35.882Z,5.13
2023-03-03T15:45:06.611Z,5.13
2023-03-03T15:47:21.733Z,5.07
2023-03-03T15:49:41.922Z,4.85
2023-03-03T15:52:21.569Z,4.50
2023-03-03T15:54:47.429Z,4.47
2023-03-03T15:56:54.280Z,3.88
2023-03-03T15:59:10.700Z,6.32
2023-03-03T16:01:31.319Z,5.15
2023-03-03T16:03:47.219Z,5.07
2023-03-03T16:06:03.935Z,7.35
2023-03-03T16:08:17.635Z,5.18
2023-03-03T16:10:34.791Z,5.03
2023-03-03T16:12:44.149Z,5.70
2023-03-03T16:15:05.842Z,5.70
2023-03-03T16:17:32.668Z,4.95
2023-03-03T16:20:17.936Z,6.63
2023-03-03T16:22:40.807Z,5.82
2023-03-03T16:25:19.594Z,6.38
2023-03-03T16:27:46.099Z,8.70
2023-03-03T16:30:12.322Z,7.00
2023-03-03T16:32:25.841Z,7.18
2023-03-03T16:34:46.065Z,6.18
2023-03-03T16:37:12.530Z,6.78
2023-03-03T16:39:21.586Z,6.43
2023-03-03T16:41:51.371Z,5.32
2023-03-03T16:44:12.860Z,6.43
2023-03-03T16:46:33.297Z,5.63
2023-03-03T16:49:00.608Z,5.10
2023-03-03T16:51:27.795Z,6.93
2023-03-03T16:53:53.436Z,7.47
2023-03-03T16:56:22.881Z,5.85
2023-03-03T16:58:52.829Z,6.40
2023-03-03T17:01:32.462Z,6.38
2023-03-03T17:04:06.762Z,6.55
2023-03-03T17:06:31.398Z,8.52
2023-03-03T17:09:08.582Z,7.28
2023-03-03T17:11:22.866Z,6.80
2023-03-03T17:13:48.424Z,7.38
2023-03-03T17:16:04.292Z,6.35
2023-03-03T17:18:48.155Z,6.85
2023-03-03T17:20:56.547Z,7.05
2023-03-03T17:23:14.544Z,8.38
2023-03-03T17:25:40.420Z,6.53
2023-03-03T17:28:05.002Z,8.95
2023-03-03T17:30:25.400Z,10.43
2023-03-03T17:33:05.826Z,9.13
2023-03-03T17:35:22.717Z,7.82
2023-03-03T17:37:37.345Z,7.63
2023-03-03T17:39:45.026Z,6.88
2023-03-03T17:42:25.074Z,8.48
2023-03-03T17:44:49.457Z,9.20
2023-03-03T17:46:55.513Z,11.07
2023-03-03T17:49:18.363Z,10.23
2023-03-03T17:51:29.727Z,8.90
2023-03-03T17:54:03.821Z,7.68
2023-03-03T17:56:20.548Z,7.18
2023-03-03T17:58:45.152Z,7.97
2023-03-03T18:01:01.159Z,8.00
2023-03-03T18:03:33.964Z,7.45
2023-03-03T18:05:57.191Z,8.52
2023-03-03T18:08:06.240Z,11.85
2023-03-03T18:10:18.586Z,9.90
2023-03-03T18:12:44.985Z,9.63
2023-03-03T18:15:05.494Z,8.57
2023-03-03T18:17:25.905Z,7.45
2023-03-03T18:19:49.298Z,10.95
2023-03-03T18:22:11.200Z,7.63
2023-03-03T18:24:28.567Z,6.93
2023-03-03T18:26:36.692Z,6.80
2023-03-03T18:28:50.565Z,6.00
2023-03-03T18:31:00.645Z,6.50
2023-03-03T18:33:07.698Z,8.18
2023-03-03T18:35:33.781Z,7.90
2023-03-03T18:37:40.432Z,7.25
2023-03-03T18:39:45.997Z,7.22
2023-03-03T18:42:11.087Z,8.50
2023-03-03T18:44:30.520Z,8.52
2023-03-03T18:46:32.053Z,6.65
2023-03-03T18:49:01.403Z,7.25
2023-03-03T18:51:03.355Z,8.30
2023-03-03T18:53:11.122Z,10.50
2023-03-03T18:55:12.701Z,10.73
2023-03-03T18:57:18.543Z,13.73
2023-03-03T18:59:35.298Z,8.45
2023-03-03T19:01:44.913Z,9.27
2023-03-03T19:03:49.112Z,8.10
2023-03-03T19:05:57.637Z,7.07
2023-03-03T19:08:24.450Z,7.43
2023-03-03T19:10:44.484Z,7.65
2023-03-03T19:12:49.414Z,9.90
2023-03-03T19:14:51.049Z,9.60
2023-03-03T19:16:54.433Z,9.75
2023-03-03T19:18:55.956Z,9.02
2023-03-03T19:21:06.269Z,8.55
2023-03-03T19:23:20.378Z,9.13
2023-03-03T19:25:26.122Z,6.50
2023-03-03T19:27:39.860Z,7.68
2023-03-03T19:29:44.257Z,8.68
2023-03-03T19:32:08.450Z,7.07
2023-03-03T19:34:40.131Z,6.22
2023-03-03T19:36:57.193Z,7.95
2023-03-03T19:39:01.538Z,7.47
2023-03-03T19:41:41.721Z,7.03
2023-03-03T19:43:43.249Z,8.63
2023-03-03T19:46:09.762Z,8.98
2023-03-03T19:48:25.382Z,11.57
2023-03-03T19:50:42.752Z,11.23
2023-03-03T19:52:56.623Z,15.05
2023-03-03T19:55:16.570Z,16.30
2023-03-03T19:57:48.994Z,19.80
2023-03-03T20:00:02.942Z,23.38
2023-03-03T20:02:57.164Z,23.80
2023-03-03T20:05:21.192Z,23.63
2023-03-03T20:07:40.994Z,21.88
2023-03-03T20:09:55.455Z,22.95
2023-03-03T20:11:59.819Z,20.10
2023-03-03T20:14:23.878Z,15.30
2023-03-03T20:16:41.398Z,15.98
2023-03-03T20:19:02.449Z,15.10
2023-03-03T20:21:15.254Z,16.10
2023-03-03T20:23:39.943Z,15.48
2023-03-03T20:26:07.420Z,14.55
2023-03-03T20:28:31.713Z,12.50
2023-03-03T20:30:55.228Z,12.52
2023-03-03T20:33:11.196Z,11.90
2023-03-03T20:35:30.904Z,10.70
2023-03-03T20:37:52.616Z,17.37
2023-03-03T20:40:21.166Z,16.10
2023-03-03T20:42:42.012Z,18.17
2023-03-03T20:44:55.386Z,15.70
2023-03-03T20:47:23.208Z,19.17
2023-03-03T20:49:52.693Z,17.33
2023-03-03T20:52:03.569Z,18.55
2023-03-03T20:54:15.826Z,19.83
2023-03-03T20:56:41.597Z,19.05
2023-03-03T20:59:09.515Z,17.35
2023-03-03T21:01:17.806Z,18.03
2023-03-03T21:03:34.288Z,14.32
2023-03-03T21:05:54.878Z,13.80
2023-03-03T21:07:58.850Z,13.03
2023-03-03T21:10:23.950Z,10.90
2023-03-03T21:12:29.251Z,12.83
2023-03-03T21:14:35.772Z,13.47
2023-03-03T21:16:37.571Z,13.80
2023-03-03T21:18:39.641Z,15.13
2023-03-03T21:20:41.308Z,13.97
2023-03-03T21:22:42.970Z,16.33
2023-03-03T21:24:56.206Z,17.00
2023-03-03T21:27:00.274Z,18.03
2023-03-03T21:29:03.571Z,16.87
2023-03-03T21:31:13.378Z,14.87
2023-03-03T21:33:43.573Z,16.33
2023-03-03T21:35:58.724Z,13.90
2023-03-03T21:38:00.407Z,12.73
2023-03-03T21:40:23.398Z,11.37
2023-03-03T21:42:42.363Z,13.10
2023-03-03T21:44:51.822Z,11.87
2023-03-03T21:46:53.398Z,11.60
2023-03-03T21:48:55.048Z,9.10
2023-03-03T21:50:56.844Z,10.07
2023-03-03T21:52:58.431Z,9.57
2023-03-03T21:55:00.047Z,9.30
2023-03-03T21:57:01.654Z,10.60
2023-03-03T21:59:03.413Z,9.00
2023-03-03T22:01:06.662Z,8.60
2023-03-03T22:03:08.187Z,9.87
2023-03-03T22:05:09.963Z,9.27
2023-03-03T22:07:11.594Z,8.63
2023-03-03T22:09:13.275Z,7.60
2023-03-03T22:11:15.684Z,9.33
2023-03-03T22:13:20.067Z,8.97
2023-03-03T22:15:21.747Z,8.83
2023-03-03T22:17:25.576Z,9.57
2023-03-03T22:19:27.122Z,12.30
2023-03-03T22:21:29.813Z,11.80
2023-03-03T22:23:32.783Z,12.93
2023-03-03T22:25:34.366Z,13.60
2023-03-03T22:27:35.936Z,11.63
2023-03-03T22:29:37.494Z,11.50
2023-03-03T22:31:39.972Z,12.77
2023-03-03T22:33:41.923Z,10.87
2023-03-03T22:35:44.005Z,12.67
2023-03-03T22:37:45.580Z,12.00
2023-03-03T22:39:48.461Z,12.23
2023-03-03T22:41:50.052Z,11.97
2023-03-03T22:43:51.653Z,12.50
2023-03-03T22:45:53.384Z,12.47
2023-03-03T22:47:55.005Z,12.20
2023-03-03T22:49:56.680Z,12.47
2023-03-03T22:51:58.921Z,12.37
2023-03-03T22:54:00.493Z,12.53
2023-03-03T22:56:02.147Z,12.00
2023-03-03T22:58:04.619Z,14.30
2023-03-03T23:00:09.001Z,22.03
2023-03-03T23:02:10.552Z,29.93
2023-03-03T23:04:12.109Z,25.17
2023-03-03T23:06:13.771Z,23.27
2023-03-03T23:08:17.461Z,19.77
2023-03-03T23:10:19.539Z,13.83
2023-03-03T23:12:21.136Z,13.83
2023-03-03T23:14:22.729Z,11.53
2023-03-03T23:16:24.530Z,11.83
2023-03-03T23:18:28.335Z,10.60
2023-03-03T23:20:31.610Z,13.40
2023-03-03T23:22:33.192Z,12.67
2023-03-03T23:24:34.868Z,12.67
2023-03-03T23:26:37.295Z,13.33
2023-03-03T23:28:38.903Z,12.87
2023-03-03T23:30:40.524Z,12.57
2023-03-03T23:32:42.383Z,11.93
2023-03-03T23:34:44.171Z,11.37
2023-03-03T23:36:45.865Z,11.23
2023-03-03T23:38:47.516Z,12.60
2023-03-03T23:40:49.124Z,12.27
2023-03-03T23:42:50.883Z,10.20
2023-03-03T23:44:52.608Z,10.27
2023-03-03T23:46:54.242Z,11.70
2023-03-03T23:48:55.875Z,12.43
2023-03-03T23:50:57.603Z,10.63
2023-03-03T23:52:59.297Z,10.90
2023-03-03T23:55:01.549Z,12.07
2023-03-03T23:57:03.538Z,12.30
2023-03-03T23:59:05.069Z,11.33
